createdAt,value
2023-03-17T00:09:12.240Z,2.05
2023-03-17T00:14:17.032Z,1.98
2023-03-17T00:19:32.346Z,2.35
2023-03-17T00:24:35.861Z,3.35
2023-03-17T00:29:41.348Z,3.50
2023-03-17T00:34:45.032Z,2.25
2023-03-17T00:39:49.737Z,3.22
2023-03-17T00:44:54.571Z,3.38
2023-03-17T00:49:58.685Z,3.58
2023-03-17T00:55:02.344Z,3.23
2023-03-17T01:05:22.449Z,2.58
2023-03-17T01:10:28.343Z,1.95
2023-03-17T01:15:35.563Z,1.63
2023-03-17T01:20:40.041Z,1.63
2023-03-17T01:25:44.826Z,1.20
2023-03-17T01:30:50.142Z,1.63
2023-03-17T01:35:54.209Z,1.42
2023-03-17T01:40:57.589Z,1.43
2023-03-17T01:46:22.187Z,1.30
2023-03-17T01:51:32.201Z,1.43
2023-03-17T01:56:36.458Z,1.50
2023-03-17T02:01:47.571Z,1.50
2023-03-17T02:06:58.438Z,1.70
2023-03-17T02:12:04.194Z,1.30
2023-03-17T02:17:10.036Z,1.50
2023-03-17T02:22:15.497Z,1.55
2023-03-17T02:27:21.405Z,1.30
2023-03-17T02:32:25.466Z,1.50
2023-03-17T02:37:30.426Z,1.50
2023-03-17T02:42:34.675Z,1.50
2023-03-17T02:47:38.126Z,1.50
2023-03-17T02:52:42.963Z,1.38
2023-03-17T03:02:49.843Z,1.40
2023-03-17T03:07:54.618Z,1.30
2023-03-17T03:12:57.927Z,1.10
2023-03-17T03:18:01.404Z,1.50
2023-03-17T03:23:06.378Z,1.77
2023-03-17T03:33:14.569Z,1.20
2023-03-17T03:38:19.822Z,1.35
2023-03-17T03:43:24.197Z,1.48
2023-03-17T03:48:27.719Z,1.33
2023-03-17T03:53:32.816Z,1.58
2023-03-17T03:58:36.319Z,1.20
2023-03-17T04:03:40.526Z,1.33
2023-03-17T04:08:45.500Z,1.40
2023-03-17T04:18:52.261Z,1.10
2023-03-17T04:23:57.371Z,1.30
2023-03-17T04:29:00.826Z,1.30
2023-03-17T04:34:04.266Z,1.20
2023-03-17T04:39:09.142Z,1.30
2023-03-17T04:49:15.545Z,1.10
2023-03-17T04:54:20.496Z,1.38
2023-03-17T05:04:31.644Z,1.92
2023-03-17T05:09:37.502Z,1.48
2023-03-17T05:14:41.146Z,1.80
2023-03-17T05:19:44.698Z,1.50
2023-03-17T05:24:49.606Z,1.45
2023-03-17T05:34:56.287Z,1.25
2023-03-17T05:40:01.248Z,1.27
2023-03-17T05:45:05.355Z,1.55
2023-03-17T05:50:09.973Z,1.15
2023-03-17T05:55:14.979Z,1.33
2023-03-17T06:00:19.410Z,1.20
2023-03-17T06:05:23.015Z,1.02
2023-03-17T06:10:28.433Z,1.40
2023-03-17T06:15:32.793Z,1.05
2023-03-17T06:20:36.830Z,1.17
2023-03-17T06:25:41.693Z,1.10
2023-03-17T06:35:48.559Z,1.00
2023-03-17T06:40:53.609Z,0.90
2023-03-17T06:45:57.200Z,1.00
2023-03-17T06:51:00.548Z,1.17
2023-03-17T06:56:05.916Z,0.93
2023-03-17T07:01:09.480Z,1.20
2023-03-17T07:06:13.421Z,1.20
2023-03-17T07:11:18.621Z,1.20
2023-03-17T07:16:22.555Z,1.23
2023-03-17T07:21:26.066Z,1.48
2023-03-17T07:26:32.243Z,1.30
2023-03-17T07:31:38.835Z,1.40
2023-03-17T07:36:42.807Z,1.33
2023-03-17T07:41:53.132Z,1.25
2023-03-17T07:46:56.715Z,1.67
2023-03-17T07:52:00.097Z,1.65
2023-03-17T07:57:05.451Z,1.48
2023-03-17T08:02:09.154Z,1.50
2023-03-17T08:07:13.280Z,1.33
2023-03-17T08:12:18.291Z,1.20
2023-03-17T08:17:21.789Z,1.23
2023-03-17T08:22:25.475Z,1.10
2023-03-17T08:27:33.214Z,1.10
2023-03-17T08:32:37.331Z,1.00
2023-03-17T08:37:40.902Z,1.15
2023-03-17T08:42:46.024Z,1.17
2023-03-17T08:47:49.617Z,1.00
2023-03-17T08:52:54.516Z,1.10
2023-03-17T08:57:59.383Z,1.10
2023-03-17T09:03:03.748Z,1.13
2023-03-17T09:08:07.847Z,0.95
2023-03-17T09:13:12.930Z,1.13
2023-03-17T09:18:16.389Z,1.13
2023-03-17T09:23:20.238Z,0.90
2023-03-17T09:28:25.042Z,1.00
2023-03-17T09:38:31.992Z,1.00
2023-03-17T09:43:46.116Z,1.08
2023-03-17T09:48:59.494Z,1.00
2023-03-17T09:54:05.350Z,1.10
2023-03-17T09:59:31.290Z,0.80
2023-03-17T10:04:34.654Z,0.95
2023-03-17T10:09:42.902Z,0.98
2023-03-17T10:14:55.993Z,0.95
2023-03-17T10:20:02.533Z,0.90
2023-03-17T10:25:14.933Z,0.90
2023-03-17T10:30:22.270Z,1.00
2023-03-17T10:35:26.403Z,1.10
2023-03-17T10:40:32.268Z,0.90
2023-03-17T10:45:44.025Z,1.20
2023-03-17T10:50:49.573Z,1.20
2023-03-17T10:55:54.616Z,0.90
2023-03-17T11:06:06.375Z,1.05
2023-03-17T11:11:22.929Z,1.20
2023-03-17T11:16:28.147Z,1.13
2023-03-17T11:21:34.884Z,0.90
2023-03-17T11:27:00.782Z,1.00
2023-03-17T11:32:23.816Z,1.00
2023-03-17T11:37:44.965Z,1.10
2023-03-17T11:43:04.381Z,0.90
2023-03-17T11:48:22.521Z,0.90
2023-03-17T11:53:46.513Z,0.95
2023-03-17T11:58:56.702Z,1.00
2023-03-17T12:04:10.650Z,1.30
2023-03-17T12:09:26.111Z,1.20
2023-03-17T12:14:33.198Z,1.10
2023-03-17T12:19:43.979Z,1.27
2023-03-17T12:24:54.771Z,1.30
2023-03-17T12:30:02.121Z,1.25
2023-03-17T12:35:26.895Z,1.50
2023-03-17T12:40:36.705Z,1.23
2023-03-17T12:45:54.206Z,1.23
2023-03-17T12:51:51.080Z,1.20
2023-03-17T12:57:03.972Z,1.20
2023-03-17T13:02:17.900Z,1.20
2023-03-17T13:07:27.190Z,1.60
2023-03-17T13:12:57.817Z,1.50
2023-03-17T13:18:29.240Z,1.80
2023-03-17T13:23:39.078Z,1.90
2023-03-17T13:28:48.863Z,1.63
2023-03-17T13:33:55.563Z,1.45
2023-03-17T13:39:30.627Z,1.20
2023-03-17T13:44:48.023Z,1.13
2023-03-17T13:49:53.040Z,1.75
2023-03-17T13:55:07.446Z,1.20
2023-03-17T14:00:24.625Z,1.23
2023-03-17T14:05:31.292Z,0.90
2023-03-17T14:10:37.439Z,1.17
2023-03-17T14:15:49.252Z,1.05
2023-03-17T14:20:57.364Z,1.10
2023-03-17T14:26:04.229Z,0.95
2023-03-17T14:31:09.084Z,1.60
2023-03-17T14:46:28.030Z,1.15
2023-03-17T14:51:36.104Z,1.10
2023-03-17T14:56:44.326Z,1.20
2023-03-17T15:01:49.094Z,1.08
2023-03-17T15:06:54.844Z,1.15
2023-03-17T15:12:06.924Z,0.93
2023-03-17T15:17:19.139Z,1.08
2023-03-17T15:22:26.139Z,1.30
2023-03-17T15:27:32.761Z,1.15
2023-03-17T15:32:36.729Z,1.10
2023-03-17T15:37:40.162Z,1.10
2023-03-17T15:42:45.566Z,1.00
2023-03-17T15:47:49.461Z,1.50
2023-03-17T15:52:56.009Z,1.27
2023-03-17T15:58:01.640Z,1.38
2023-03-17T16:03:15.273Z,1.25
2023-03-17T16:08:19.206Z,1.45
2023-03-17T16:13:24.254Z,1.10
2023-03-17T16:23:37.412Z,1.20
2023-03-17T16:28:42.583Z,1.23
2023-03-17T16:38:49.784Z,2.00
2023-03-17T16:43:59.644Z,1.90
2023-03-17T16:49:04.331Z,1.95
2023-03-17T16:54:07.973Z,1.58
2023-03-17T16:59:19.977Z,1.35
2023-03-17T17:04:24.450Z,1.90
2023-03-17T17:09:27.915Z,1.73
2023-03-17T17:14:32.840Z,2.15
2023-03-17T17:24:39.667Z,2.35
2023-03-17T17:29:44.576Z,2.35
2023-03-17T17:39:51.895Z,2.03
2023-03-17T17:44:56.766Z,2.28
2023-03-17T17:50:00.451Z,2.38
2023-03-17T17:55:03.952Z,1.77
2023-03-17T18:00:11.281Z,1.88
2023-03-17T18:05:14.857Z,1.70
2023-03-17T18:10:20.070Z,2.00
2023-03-17T18:15:26.596Z,1.77
2023-03-17T18:20:30.641Z,1.80
2023-03-17T18:25:34.393Z,1.77
2023-03-17T18:30:39.335Z,1.90
2023-03-17T18:40:46.688Z,2.03
2023-03-17T18:45:51.574Z,2.30
2023-03-17T18:55:59.565Z,2.38
2023-03-17T19:11:15.595Z,2.65
2023-03-17T19:16:20.557Z,2.80
2023-03-17T19:21:24.772Z,2.80
2023-03-17T19:26:28.715Z,3.03
2023-03-17T19:31:33.751Z,2.90
2023-03-17T19:36:38.219Z,2.70
2023-03-17T19:41:41.896Z,2.65
2023-03-17T19:46:46.841Z,3.63
2023-03-17T19:51:50.657Z,3.90
2023-03-17T19:56:54.178Z,4.00
2023-03-17T20:01:59.091Z,4.00
2023-03-17T20:12:06.785Z,3.35
2023-03-17T20:17:12.298Z,3.03
2023-03-17T20:22:16.109Z,2.85
2023-03-17T20:27:19.869Z,3.28
2023-03-17T20:32:24.816Z,4.00
2023-03-17T20:37:28.360Z,3.50
2023-03-17T20:42:31.881Z,3.53
2023-03-17T20:47:36.758Z,3.38
2023-03-17T20:57:47.773Z,3.33
2023-03-17T21:02:53.425Z,4.00
2023-03-17T21:07:57.869Z,4.03
2023-03-17T21:13:01.498Z,3.47
2023-03-17T21:18:07.026Z,4.03
2023-03-17T21:23:11.144Z,4.10
2023-03-17T21:28:15.656Z,4.00
2023-03-17T21:33:21.673Z,3.83
2023-03-17T21:38:25.102Z,3.30
2023-03-17T21:43:29.087Z,3.80
2023-03-17T21:48:33.850Z,3.37
2023-03-17T21:58:40.736Z,4.18
2023-03-17T22:03:46.156Z,3.60
2023-03-17T22:08:50.761Z,3.70
2023-03-17T22:13:54.307Z,3.67
2023-03-17T22:18:59.084Z,3.10
2023-03-17T22:29:06.835Z,3.47
2023-03-17T22:34:11.814Z,4.05
2023-03-17T22:39:15.306Z,3.70
2023-03-17T22:44:18.641Z,3.75
2023-03-17T22:49:23.828Z,3.00
2023-03-17T22:54:27.422Z,2.83
2023-03-17T22:59:30.961Z,2.92
2023-03-17T23:04:36.112Z,3.58
2023-03-17T23:09:41.461Z,2.83
2023-03-17T23:14:45.253Z,3.00
2023-03-17T23:19:50.164Z,3.30
2023-03-17T23:24:54.154Z,3.35
2023-03-17T23:29:59.332Z,2.43
2023-03-17T23:35:04.188Z,2.75
2023-03-17T23:40:09.401Z,2.08
2023-03-17T23:45:15.620Z,2.45
2023-03-17T23:50:21.928Z,2.30
2023-03-17T23:55:25.251Z,2.80
